createdAt,value
2019-03-09T00:01:20.511Z,72.89
2019-03-09T00:03:48.986Z,73.21
2019-03-09T00:06:17.862Z,72.28
2019-03-09T00:08:46.315Z,72.35
2019-03-09T00:11:14.793Z,72.81
2019-03-09T00:13:43.250Z,72.96
2019-03-09T00:16:11.728Z,72.76
2019-03-09T00:18:40.210Z,72.90
2019-03-09T00:21:08.687Z,72.84
2019-03-09T00:23:44.421Z,72.99
2019-03-09T00:26:17.311Z,72.72
2019-03-09T00:29:05.433Z,72.84
2019-03-09T00:31:44.492Z,73.27
2019-03-09T00:34:12.975Z,72.21
2019-03-09T00:36:41.425Z,72.99
2019-03-09T00:39:10.559Z,72.91
2019-03-09T00:41:39.029Z,72.29
2019-03-09T00:44:07.499Z,72.56
2019-03-09T00:46:36.003Z,72.08
2019-03-09T00:49:04.473Z,72.93
2019-03-09T00:51:32.955Z,72.55
2019-03-09T00:54:01.438Z,72.66
2019-03-09T00:56:29.922Z,72.95
2019-03-09T00:58:58.406Z,72.40
2019-03-09T01:01:26.885Z,72.37
2019-03-09T01:03:55.437Z,72.55
2019-03-09T01:06:24.069Z,72.44
2019-03-09T01:08:52.536Z,72.37
2019-03-09T01:11:21.026Z,72.22
2019-03-09T01:13:49.523Z,72.70
2019-03-09T01:16:18.073Z,72.30
2019-03-09T01:18:46.565Z,71.86
2019-03-09T01:21:15.038Z,72.32
2019-03-09T01:23:43.547Z,72.29
2019-03-09T01:26:12.042Z,72.12
2019-03-09T01:28:40.543Z,72.09
2019-03-09T01:31:09.142Z,72.60
2019-03-09T01:33:37.622Z,73.05
2019-03-09T01:36:06.114Z,72.79
2019-03-09T01:38:34.617Z,72.88
2019-03-09T01:41:03.090Z,73.26
2019-03-09T01:43:31.592Z,73.00
2019-03-09T01:46:00.063Z,73.37
2019-03-09T01:48:28.552Z,72.88
2019-03-09T01:50:57.019Z,73.86
2019-03-09T01:53:25.522Z,72.72
2019-03-09T01:55:53.981Z,73.30
2019-03-09T01:58:22.478Z,73.04
2019-03-09T02:00:50.953Z,73.42
2019-03-09T02:03:19.454Z,73.90
2019-03-09T02:05:48.119Z,73.94
2019-03-09T02:08:16.607Z,73.71
2019-03-09T02:10:45.072Z,73.15
2019-03-09T02:13:13.571Z,74.56
2019-03-09T02:15:42.035Z,74.55
2019-03-09T02:18:10.545Z,75.08
2019-03-09T02:20:39.024Z,74.59
2019-03-09T02:23:07.561Z,73.54
2019-03-09T02:25:36.057Z,74.34
2019-03-09T02:28:04.528Z,74.23
2019-03-09T02:30:33.002Z,74.51
2019-03-09T02:33:01.613Z,73.97
2019-03-09T02:35:30.088Z,74.67
2019-03-09T02:38:00.246Z,74.54
2019-03-09T02:40:30.054Z,74.01
2019-03-09T02:42:58.532Z,74.65
2019-03-09T02:45:28.757Z,75.22
2019-03-09T02:47:57.247Z,74.54
2019-03-09T02:50:25.717Z,74.61
2019-03-09T02:52:54.204Z,74.45
2019-03-09T02:55:26.369Z,75.20
2019-03-09T02:57:54.851Z,75.48
2019-03-09T03:00:23.386Z,75.12
2019-03-09T03:02:59.243Z,74.86
2019-03-09T03:05:27.756Z,76.11
2019-03-09T03:07:56.236Z,74.71
2019-03-09T03:10:24.726Z,76.07
2019-03-09T03:12:53.199Z,75.30
2019-03-09T03:15:29.884Z,75.90
2019-03-09T03:17:58.366Z,75.46
2019-03-09T03:20:26.866Z,75.70
2019-03-09T03:22:55.322Z,75.60
2019-03-09T03:25:23.899Z,75.61
2019-03-09T03:27:52.358Z,75.58
2019-03-09T03:30:20.869Z,76.35
2019-03-09T03:32:49.491Z,75.41
2019-03-09T03:35:17.977Z,75.19
2019-03-09T03:37:46.457Z,76.37
2019-03-09T03:40:15.003Z,76.86
2019-03-09T03:42:43.480Z,76.21
2019-03-09T03:45:14.033Z,76.50
2019-03-09T03:47:42.498Z,75.79
2019-03-09T03:50:11.221Z,76.11
2019-03-09T03:52:39.700Z,76.10
2019-03-09T03:55:12.075Z,75.71
2019-03-09T03:57:40.515Z,76.13
2019-03-09T04:00:14.530Z,76.56
2019-03-09T04:02:43.189Z,76.98
2019-03-09T04:05:12.031Z,76.32
2019-03-09T04:07:41.439Z,76.89
2019-03-09T04:10:11.948Z,77.57
2019-03-09T04:12:42.151Z,77.28
2019-03-09T04:15:11.489Z,78.55
2019-03-09T04:17:39.966Z,77.43
2019-03-09T04:20:11.621Z,77.62
2019-03-09T04:22:40.082Z,76.75
2019-03-09T04:25:09.344Z,77.58
2019-03-09T04:27:37.850Z,77.62
2019-03-09T04:30:09.198Z,77.06
2019-03-09T04:32:37.710Z,78.07
2019-03-09T04:35:06.932Z,77.27
2019-03-09T04:37:35.410Z,76.77
2019-03-09T04:40:06.327Z,77.59
2019-03-09T04:42:34.806Z,76.98
2019-03-09T04:45:03.957Z,77.45
2019-03-09T04:47:32.432Z,77.51
2019-03-09T04:50:00.931Z,76.77
2019-03-09T04:52:29.408Z,77.45
2019-03-09T04:54:57.901Z,77.28
2019-03-09T04:57:26.367Z,76.60
2019-03-09T04:59:54.859Z,76.34
2019-03-09T05:02:23.403Z,77.04
2019-03-09T05:04:51.942Z,76.85
2019-03-09T05:07:24.052Z,77.33
2019-03-09T05:10:23.224Z,77.46
2019-03-09T05:12:54.728Z,76.81
2019-03-09T05:15:23.230Z,78.09
2019-03-09T05:17:51.698Z,78.51
2019-03-09T05:20:20.193Z,78.25
2019-03-09T05:22:48.665Z,77.81
2019-03-09T05:25:17.165Z,78.21
2019-03-09T05:27:45.636Z,78.14
2019-03-09T05:30:36.301Z,77.60
2019-03-09T05:33:05.165Z,78.38
2019-03-09T05:35:33.658Z,78.13
2019-03-09T05:38:02.116Z,78.48
2019-03-09T05:40:30.616Z,78.28
2019-03-09T05:42:59.092Z,79.34
2019-03-09T05:45:27.607Z,78.83
2019-03-09T05:47:56.158Z,78.03
2019-03-09T05:50:24.649Z,78.37
2019-03-09T05:52:59.083Z,79.38
2019-03-09T05:55:27.638Z,79.22
2019-03-09T05:57:56.122Z,80.12
2019-03-09T06:00:24.630Z,80.94
2019-03-09T06:02:53.120Z,82.14
2019-03-09T06:05:30.546Z,80.84
2019-03-09T06:07:59.017Z,82.80
2019-03-09T06:10:27.526Z,82.89
2019-03-09T06:12:56.004Z,84.00
2019-03-09T06:15:25.970Z,82.43
2019-03-09T06:17:54.427Z,83.30
2019-03-09T06:20:22.935Z,84.02
2019-03-09T06:22:51.414Z,83.97
2019-03-09T06:25:20.024Z,84.46
2019-03-09T06:27:48.640Z,85.58
2019-03-09T06:30:17.596Z,85.72
2019-03-09T06:33:05.566Z,86.29
2019-03-09T06:35:34.066Z,86.50
2019-03-09T06:38:31.430Z,86.25
2019-03-09T06:41:03.137Z,86.21
2019-03-09T06:43:30.125Z,86.47
2019-03-09T06:45:58.602Z,87.47
2019-03-09T06:48:27.075Z,86.57
2019-03-09T06:50:55.566Z,86.88
2019-03-09T06:53:24.050Z,87.46
2019-03-09T06:55:52.529Z,87.30
2019-03-09T06:58:20.997Z,88.26
2019-03-09T07:00:49.505Z,87.03
2019-03-09T07:03:17.994Z,86.92
2019-03-09T07:05:46.504Z,88.02
2019-03-09T07:08:14.991Z,88.23
2019-03-09T07:10:43.465Z,88.20
2019-03-09T07:13:11.964Z,88.27
2019-03-09T07:15:41.889Z,87.77
2019-03-09T07:18:15.635Z,86.89
2019-03-09T07:20:44.250Z,87.25
2019-03-09T07:23:12.743Z,88.52
2019-03-09T07:25:41.189Z,87.86
2019-03-09T07:28:14.439Z,87.06
2019-03-09T07:30:42.934Z,88.49
2019-03-09T07:33:11.444Z,87.62
2019-03-09T07:35:39.907Z,88.07
2019-03-09T07:38:08.402Z,87.60
2019-03-09T07:40:36.870Z,88.16
2019-03-09T07:43:05.433Z,87.23
2019-03-09T07:45:33.950Z,88.25
2019-03-09T07:48:02.523Z,87.65
2019-03-09T07:50:31.064Z,87.49
2019-03-09T07:52:59.580Z,86.46
2019-03-09T07:55:28.063Z,86.73
2019-03-09T07:58:00.787Z,87.52
2019-03-09T08:00:29.240Z,87.00
2019-03-09T08:02:57.893Z,86.96
2019-03-09T08:05:26.541Z,86.33
2019-03-09T08:07:55.030Z,86.13
2019-03-09T08:10:30.521Z,86.02
2019-03-09T08:12:59.019Z,86.22
2019-03-09T08:15:27.482Z,86.22
2019-03-09T08:17:56.054Z,85.83
2019-03-09T08:20:24.557Z,85.69
2019-03-09T08:22:53.043Z,85.88
2019-03-09T08:25:25.464Z,86.15
2019-03-09T08:27:53.940Z,85.78
2019-03-09T08:30:24.154Z,85.65
2019-03-09T08:32:52.698Z,85.79
2019-03-09T08:35:21.506Z,85.49
2019-03-09T08:37:50.938Z,86.58
2019-03-09T08:40:23.105Z,86.86
2019-03-09T08:42:51.779Z,86.92
2019-03-09T08:45:21.183Z,88.00
2019-03-09T08:47:52.491Z,88.53
2019-03-09T08:50:21.825Z,87.01
2019-03-09T08:52:50.310Z,87.30
2019-03-09T08:55:18.982Z,88.40
2019-03-09T08:57:47.548Z,88.62
2019-03-09T09:00:24.557Z,88.83
2019-03-09T09:02:53.906Z,88.67
2019-03-09T09:05:22.422Z,87.36
2019-03-09T09:07:50.976Z,85.60
2019-03-09T09:10:19.459Z,84.57
2019-03-09T09:12:47.940Z,83.08
2019-03-09T09:15:17.549Z,82.92
2019-03-09T09:17:46.129Z,80.84
2019-03-09T09:20:20.397Z,77.93
2019-03-09T09:22:48.879Z,78.32
2019-03-09T09:25:17.412Z,77.16
2019-03-09T09:27:45.961Z,73.09
2019-03-09T09:30:22.270Z,74.59
2019-03-09T09:32:50.897Z,73.24
2019-03-09T09:35:19.863Z,70.88
2019-03-09T09:37:48.613Z,70.81
2019-03-09T09:40:19.756Z,67.42
2019-03-09T09:42:48.332Z,72.59
2019-03-09T09:45:17.240Z,70.40
2019-03-09T09:47:45.719Z,69.83
2019-03-09T09:50:16.396Z,67.11
2019-03-09T09:52:45.020Z,65.82
2019-03-09T09:55:15.606Z,64.86
2019-03-09T09:57:44.089Z,68.25
2019-03-09T10:00:24.405Z,60.05
2019-03-09T10:02:52.883Z,64.26
2019-03-09T10:05:22.024Z,57.26
2019-03-09T10:07:50.747Z,60.95
2019-03-09T10:10:21.609Z,63.43
2019-03-09T10:12:50.087Z,58.21
2019-03-09T10:15:26.944Z,52.80
2019-03-09T10:17:55.428Z,54.92
2019-03-09T10:20:24.495Z,60.87
2019-03-09T10:23:03.681Z,56.81
2019-03-09T10:25:24.070Z,53.92
2019-03-09T10:27:52.549Z,52.81
2019-03-09T10:30:22.680Z,52.95
2019-03-09T10:32:51.601Z,55.61
2019-03-09T10:35:20.224Z,52.29
2019-03-09T10:37:49.655Z,53.12
2019-03-09T10:40:18.520Z,52.72
2019-03-09T10:42:46.980Z,54.02
2019-03-09T10:45:17.674Z,52.62
2019-03-09T10:47:46.216Z,52.09
2019-03-09T10:50:16.054Z,52.92
2019-03-09T10:52:44.771Z,52.82
2019-03-09T10:55:30.638Z,54.04
2019-03-09T10:57:59.143Z,53.41
2019-03-09T11:00:35.735Z,54.15
2019-03-09T11:03:04.600Z,53.97
2019-03-09T11:05:33.171Z,54.97
2019-03-09T11:08:01.786Z,55.33
2019-03-09T11:10:30.433Z,55.33
2019-03-09T11:12:58.925Z,55.27
2019-03-09T11:15:27.957Z,55.41
2019-03-09T11:17:56.600Z,55.68
2019-03-09T11:20:25.171Z,56.08
2019-03-09T11:22:53.643Z,55.88
2019-03-09T11:25:22.340Z,57.39
2019-03-09T11:27:50.876Z,56.76
2019-03-09T11:30:26.687Z,56.85
2019-03-09T11:32:55.163Z,57.37
2019-03-09T11:35:23.665Z,56.94
2019-03-09T11:37:52.134Z,57.19
2019-03-09T11:40:20.638Z,57.48
2019-03-09T11:42:49.276Z,56.90
2019-03-09T11:45:19.087Z,56.78
2019-03-09T11:47:47.570Z,56.73
2019-03-09T11:50:17.027Z,56.31
2019-03-09T11:52:45.931Z,55.37
2019-03-09T11:55:17.742Z,55.11
2019-03-09T11:57:46.279Z,54.50
2019-03-09T12:00:35.581Z,54.36
2019-03-09T12:03:04.078Z,54.83
2019-03-09T12:05:32.597Z,54.73
2019-03-09T12:08:01.074Z,55.71
2019-03-09T12:10:29.570Z,55.56
2019-03-09T12:12:58.063Z,56.30
2019-03-09T12:15:26.619Z,55.54
2019-03-09T12:17:55.106Z,53.75
2019-03-09T12:20:25.238Z,53.98
2019-03-09T12:23:01.009Z,53.26
2019-03-09T12:25:23.938Z,53.23
2019-03-09T12:27:52.406Z,54.09
2019-03-09T12:30:22.681Z,53.10
2019-03-09T12:32:51.164Z,53.52
2019-03-09T12:35:19.858Z,53.24
2019-03-09T12:37:48.398Z,53.65
2019-03-09T12:40:20.903Z,51.19
2019-03-09T12:42:49.540Z,53.00
2019-03-09T12:45:18.265Z,52.57
2019-03-09T12:47:46.910Z,53.32
2019-03-09T12:50:18.168Z,53.23
2019-03-09T12:52:46.726Z,53.51
2019-03-09T12:55:15.283Z,53.11
2019-03-09T12:57:43.833Z,52.62
2019-03-09T13:00:23.650Z,53.27
2019-03-09T13:02:52.138Z,52.90
2019-03-09T13:05:20.702Z,53.11
2019-03-09T13:07:49.204Z,53.18
2019-03-09T13:10:17.851Z,53.17
2019-03-09T13:12:47.069Z,53.32
2019-03-09T13:15:17.097Z,52.92
2019-03-09T13:17:46.204Z,53.08
2019-03-09T13:20:16.832Z,53.16
2019-03-09T13:22:45.576Z,53.27
2019-03-09T13:25:14.624Z,53.37
2019-03-09T13:27:43.373Z,53.41
2019-03-09T13:30:22.518Z,53.84
2019-03-09T13:32:51.047Z,53.19
2019-03-09T13:35:20.510Z,53.84
2019-03-09T13:37:49.024Z,53.71
2019-03-09T13:40:17.608Z,54.00
2019-03-09T13:42:46.096Z,54.55
2019-03-09T13:45:17.626Z,54.42
2019-03-09T13:47:46.194Z,54.43
2019-03-09T13:50:15.252Z,54.60
2019-03-09T13:52:43.807Z,54.61
2019-03-09T13:55:13.218Z,55.17
2019-03-09T13:57:42.339Z,55.76
2019-03-09T14:00:18.445Z,55.54
2019-03-09T14:02:46.949Z,55.83
2019-03-09T14:05:15.636Z,55.49
2019-03-09T14:07:44.139Z,55.56
2019-03-09T14:10:17.291Z,55.76
2019-03-09T14:12:45.972Z,55.65
2019-03-09T14:15:18.035Z,55.78
2019-03-09T14:17:46.553Z,55.81
2019-03-09T14:20:16.259Z,55.89
2019-03-09T14:22:44.817Z,56.13
2019-03-09T14:25:15.584Z,56.56
2019-03-09T14:27:44.089Z,57.38
2019-03-09T14:30:14.818Z,57.14
2019-03-09T14:32:43.326Z,58.76
2019-03-09T14:35:11.802Z,58.90
2019-03-09T14:37:40.366Z,60.89
2019-03-09T14:40:11.691Z,61.20
2019-03-09T14:42:40.176Z,60.46
2019-03-09T14:45:11.712Z,60.08
2019-03-09T14:47:40.203Z,59.77
2019-03-09T14:50:09.808Z,60.51
2019-03-09T14:52:38.353Z,59.61
2019-03-09T14:55:09.074Z,59.79
2019-03-09T14:57:37.627Z,59.86
2019-03-09T15:00:26.606Z,59.93
2019-03-09T15:02:55.117Z,59.73
2019-03-09T15:05:23.853Z,59.54
2019-03-09T15:07:52.356Z,59.97
2019-03-09T15:10:20.823Z,59.28
2019-03-09T15:12:49.379Z,61.43
2019-03-09T15:15:19.289Z,64.42
2019-03-09T15:17:47.798Z,63.14
2019-03-09T15:20:17.222Z,62.40
2019-03-09T15:22:45.982Z,62.90
2019-03-09T15:25:16.411Z,65.37
2019-03-09T15:27:44.910Z,63.80
2019-03-09T15:30:18.196Z,63.90
2019-03-09T15:32:46.765Z,63.00
2019-03-09T15:35:39.222Z,63.30
2019-03-09T15:38:07.787Z,63.45
2019-03-09T15:40:36.281Z,63.99
2019-03-09T15:43:04.763Z,62.39
2019-03-09T15:45:33.219Z,62.75
2019-03-09T15:48:01.732Z,62.84
2019-03-09T15:50:30.210Z,62.39
2019-03-09T15:52:58.700Z,62.94
2019-03-09T15:55:27.163Z,63.12
2019-03-09T15:57:55.643Z,62.71
2019-03-09T16:00:26.997Z,62.67
2019-03-09T16:02:55.542Z,63.92
2019-03-09T16:05:23.965Z,64.40
2019-03-09T16:07:52.453Z,65.11
2019-03-09T16:10:22.055Z,66.80
2019-03-09T16:12:50.625Z,66.63
2019-03-09T16:15:19.322Z,67.98
2019-03-09T16:17:47.878Z,66.36
2019-03-09T16:20:24.023Z,68.22
2019-03-09T16:22:52.478Z,72.64
2019-03-09T16:25:20.980Z,73.70
2019-03-09T16:27:49.440Z,74.10
2019-03-09T16:30:22.693Z,74.42
2019-03-09T16:32:51.163Z,74.43
2019-03-09T16:35:19.732Z,76.27
2019-03-09T16:37:49.456Z,76.53
2019-03-09T16:40:19.890Z,74.71
2019-03-09T16:42:48.360Z,73.17
2019-03-09T16:45:17.513Z,74.46
2019-03-09T16:47:45.996Z,76.29
2019-03-09T16:50:20.675Z,72.57
2019-03-09T16:52:49.167Z,74.11
2019-03-09T16:55:17.648Z,72.32
2019-03-09T16:57:46.334Z,73.12
2019-03-09T17:00:19.217Z,74.97
2019-03-09T17:02:47.779Z,74.24
2019-03-09T17:05:16.280Z,77.97
2019-03-09T17:07:44.760Z,76.29
2019-03-09T17:10:14.799Z,75.03
2019-03-09T17:12:43.259Z,76.97
2019-03-09T17:15:19.883Z,77.64
2019-03-09T17:17:48.420Z,78.55
2019-03-09T17:20:17.967Z,78.92
2019-03-09T17:22:46.435Z,81.43
2019-03-09T17:25:15.446Z,79.57
2019-03-09T17:27:44.081Z,80.10
2019-03-09T17:30:19.563Z,78.67
2019-03-09T17:32:48.027Z,79.52
2019-03-09T17:35:18.144Z,79.55
2019-03-09T17:37:46.743Z,79.94
2019-03-09T17:40:16.263Z,80.16
2019-03-09T17:42:44.879Z,80.83
2019-03-09T17:45:19.031Z,82.30
2019-03-09T17:47:47.506Z,83.10
2019-03-09T17:50:16.014Z,83.53
2019-03-09T17:52:44.474Z,84.33
2019-03-09T17:55:13.420Z,84.51
2019-03-09T17:57:41.919Z,85.62
2019-03-09T18:00:25.085Z,85.97
2019-03-09T18:02:53.563Z,86.41
2019-03-09T18:05:22.155Z,85.79
2019-03-09T18:07:50.689Z,84.84
2019-03-09T18:10:31.612Z,85.74
2019-03-09T18:13:00.095Z,83.39
2019-03-09T18:15:28.663Z,84.81
2019-03-09T18:17:57.150Z,83.31
2019-03-09T18:20:25.639Z,85.55
2019-03-09T18:22:54.106Z,86.26
2019-03-09T18:25:22.701Z,86.11
2019-03-09T18:27:51.174Z,85.88
2019-03-09T18:30:19.749Z,87.28
2019-03-09T18:32:48.272Z,86.44
2019-03-09T18:35:16.768Z,87.75
2019-03-09T18:37:45.256Z,88.25
2019-03-09T18:40:15.788Z,88.28
2019-03-09T18:42:44.309Z,86.36
2019-03-09T18:45:18.286Z,88.01
2019-03-09T18:47:46.806Z,86.56
2019-03-09T18:50:15.533Z,86.51
2019-03-09T18:52:44.062Z,88.25
2019-03-09T18:55:12.881Z,86.78
2019-03-09T18:57:41.436Z,88.09
2019-03-09T19:00:16.011Z,88.74
2019-03-09T19:02:44.506Z,87.18
2019-03-09T19:05:13.081Z,88.15
2019-03-09T19:07:41.542Z,87.52
2019-03-09T19:10:12.891Z,89.34
2019-03-09T19:12:41.352Z,87.34
2019-03-09T19:15:12.390Z,88.35
2019-03-09T19:17:40.938Z,87.32
2019-03-09T19:20:12.444Z,89.25
2019-03-09T19:22:40.948Z,87.32
2019-03-09T19:25:11.541Z,88.75
2019-03-09T19:27:40.040Z,88.85
2019-03-09T19:30:19.217Z,88.02
2019-03-09T19:32:47.674Z,87.96
2019-03-09T19:35:16.224Z,87.75
2019-03-09T19:37:44.865Z,86.94
2019-03-09T19:40:17.456Z,88.81
2019-03-09T19:42:45.923Z,88.25
2019-03-09T19:45:18.704Z,88.49
2019-03-09T19:47:47.245Z,87.90
2019-03-09T19:50:23.951Z,89.48
2019-03-09T19:52:52.484Z,89.87
2019-03-09T19:55:21.126Z,89.81
2019-03-09T19:57:49.623Z,89.34
2019-03-09T20:00:22.306Z,91.28
2019-03-09T20:02:50.778Z,90.04
2019-03-09T20:05:19.447Z,91.22
2019-03-09T20:07:47.924Z,91.49
2019-03-09T20:10:20.634Z,90.33
2019-03-09T20:12:49.113Z,90.82
2019-03-09T20:15:18.879Z,89.98
2019-03-09T20:17:47.422Z,89.89
2019-03-09T20:20:19.115Z,89.79
2019-03-09T20:22:47.654Z,89.59
2019-03-09T20:25:16.214Z,90.06
2019-03-09T20:27:44.691Z,89.17
2019-03-09T20:30:18.106Z,89.05
2019-03-09T20:32:46.586Z,89.34
2019-03-09T20:35:15.423Z,88.82
2019-03-09T20:37:43.908Z,88.29
2019-03-09T20:40:14.851Z,88.83
2019-03-09T20:42:43.325Z,87.61
2019-03-09T20:45:16.860Z,86.63
2019-03-09T20:47:45.304Z,86.53
2019-03-09T20:50:18.908Z,86.85
2019-03-09T20:52:47.442Z,85.72
2019-03-09T20:55:15.941Z,83.69
2019-03-09T20:57:44.425Z,84.24
2019-03-09T21:00:21.541Z,84.26
2019-03-09T21:02:50.002Z,83.05
2019-03-09T21:05:18.675Z,82.52
2019-03-09T21:07:47.144Z,82.87
2019-03-09T21:10:19.528Z,80.74
2019-03-09T21:13:11.707Z,81.03
2019-03-09T21:15:40.221Z,81.32
2019-03-09T21:18:08.716Z,80.68
2019-03-09T21:20:37.205Z,81.22
2019-03-09T21:23:05.710Z,80.86
2019-03-09T21:25:34.200Z,80.83
2019-03-09T21:28:02.694Z,80.53
2019-03-09T21:30:31.202Z,80.16
2019-03-09T21:32:59.659Z,79.83
2019-03-09T21:35:28.240Z,79.29
2019-03-09T21:37:56.710Z,76.69
2019-03-09T21:40:25.270Z,76.21
2019-03-09T21:42:53.737Z,76.64
2019-03-09T21:45:22.235Z,76.77
2019-03-09T21:47:50.709Z,77.34
2019-03-09T21:50:19.367Z,77.14
2019-03-09T21:52:47.879Z,76.96
2019-03-09T21:55:17.378Z,76.19
2019-03-09T21:57:46.119Z,76.70
2019-03-09T22:00:19.693Z,76.15
2019-03-09T22:02:50.202Z,75.94
2019-03-09T22:05:18.405Z,76.57
2019-03-09T22:07:46.924Z,76.19
2019-03-09T22:10:15.483Z,76.23
2019-03-09T22:12:44.027Z,75.72
2019-03-09T22:15:16.780Z,75.83
2019-03-09T22:17:45.263Z,75.92
2019-03-09T22:20:14.578Z,75.67
2019-03-09T22:22:43.451Z,74.86
2019-03-09T22:25:13.061Z,74.53
2019-03-09T22:27:41.573Z,73.98
2019-03-09T22:30:17.892Z,74.17
2019-03-09T22:32:46.397Z,74.69
2019-03-09T22:35:15.308Z,74.74
2019-03-09T22:37:43.886Z,74.46
2019-03-09T22:40:14.209Z,74.63
2019-03-09T22:42:42.700Z,74.56
2019-03-09T22:45:12.616Z,74.63
2019-03-09T22:47:41.093Z,75.14
2019-03-09T22:50:17.736Z,74.78
2019-03-09T22:52:46.328Z,74.82
2019-03-09T22:55:14.770Z,74.95
2019-03-09T22:57:43.252Z,74.66
2019-03-09T23:00:31.446Z,74.60
2019-03-09T23:03:00.010Z,74.40
2019-03-09T23:05:28.466Z,74.60
2019-03-09T23:07:56.978Z,73.98
2019-03-09T23:10:26.979Z,74.23
2019-03-09T23:12:55.507Z,74.75
2019-03-09T23:15:23.964Z,74.47
2019-03-09T23:17:52.459Z,74.15
2019-03-09T23:20:21.030Z,74.56
2019-03-09T23:22:49.527Z,74.53
2019-03-09T23:25:18.164Z,73.77
2019-03-09T23:27:46.673Z,74.03
2019-03-09T23:30:17.061Z,74.36
2019-03-09T23:32:45.742Z,73.68
2019-03-09T23:35:15.045Z,73.73
2019-03-09T23:37:43.977Z,73.55
2019-03-09T23:40:14.889Z,73.52
2019-03-09T23:42:43.368Z,73.88
2019-03-09T23:45:14.301Z,73.72
2019-03-09T23:47:42.860Z,73.92
2019-03-09T23:50:13.677Z,73.97
2019-03-09T23:52:42.942Z,74.33
2019-03-09T23:55:21.135Z,73.67
2019-03-09T23:57:42.996Z,73.84
